Time;durP1;ratioP1;P1;durP2;ratioP2;P2;SDS_P1;SDS_P2;PMS_P1;PMS_P2;Temp;Humidity;BMP_temperature;BMP_pressure;BME280_temperature;BME280_humidity;BME280_pressure;Samples;Min_cycle;Max_cycle;Signal;HPM_P1;HPM_P2
2022/12/13 00:01:29;;;;;;;37.90;19.63;;;-4.50;99.90;;;;;;5042025;28;38005;-76
2022/12/13 00:03:57;;;;;;;38.20;18.67;;;-4.50;99.90;;;;;;5043795;28;38120;-76
2022/12/13 00:06:24;;;;;;;38.90;18.80;;;-4.50;99.90;;;;;;5044239;28;36454;-77
2022/12/13 00:08:51;;;;;;;35.40;18.93;;;-4.50;99.90;;;;;;5037675;28;36106;-76
2022/12/13 00:11:17;;;;;;;37.23;19.13;;;-4.50;99.90;;;;;;5044783;28;38439;-77
2022/12/13 00:13:46;;;;;;;36.53;19.27;;;-4.60;99.90;;;;;;5045228;28;39256;-76
2022/12/13 00:16:15;;;;;;;35.83;19.40;;;-4.50;99.90;;;;;;5049051;28;37970;-77
2022/12/13 00:18:42;;;;;;;35.27;18.43;;;-4.60;99.90;;;;;;5042190;28;37667;-76
2022/12/13 00:21:12;;;;;;;34.57;18.70;;;-4.60;99.90;;;;;;5045443;28;37499;-76
2022/12/13 00:23:38;;;;;;;40.37;18.80;;;-4.60;99.90;;;;;;5047882;28;37395;-76
2022/12/13 00:26:06;;;;;;;38.63;18.53;;;-4.60;99.90;;;;;;5045884;28;37850;-76
2022/12/13 00:28:32;;;;;;;43.27;19.00;;;-4.70;99.90;;;;;;5048344;28;37520;-77
2022/12/13 00:30:59;;;;;;;36.40;18.23;;;-4.70;99.90;;;;;;5043460;28;38325;-76
2022/12/13 00:33:26;;;;;;;35.87;17.27;;;-4.60;99.90;;;;;;5037460;28;38904;-76
2022/12/13 00:35:53;;;;;;;43.23;20.90;;;-4.60;99.90;;;;;;5032257;28;39142;-76
2022/12/13 00:38:20;;;;;;;38.73;18.17;;;-4.60;99.90;;;;;;5044410;28;37422;-77
2022/12/13 00:40:46;;;;;;;35.70;17.50;;;-4.70;99.90;;;;;;5040801;28;38007;-76
2022/12/13 00:43:12;;;;;;;33.00;17.40;;;-4.70;99.90;;;;;;5038062;28;35862;-77
2022/12/13 00:45:38;;;;;;;38.53;19.03;;;-4.70;99.90;;;;;;5038505;28;38363;-77
2022/12/13 00:48:05;;;;;;;38.40;18.63;;;-4.70;99.90;;;;;;5039221;28;38404;-77
2022/12/13 00:50:32;;;;;;;34.80;17.30;;;-4.70;99.90;;;;;;5044580;28;38654;-76
2022/12/13 00:52:59;;;;;;;32.87;18.00;;;-4.70;99.90;;;;;;5038414;28;37253;-76
2022/12/13 00:55:27;;;;;;;38.90;18.63;;;-4.70;99.90;;;;;;5043584;28;39266;-76
2022/12/13 00:57:53;;;;;;;40.40;18.77;;;-4.80;99.90;;;;;;5042102;28;36109;-76
2022/12/13 01:00:19;;;;;;;35.57;18.30;;;-4.80;99.90;;;;;;5040918;28;37643;-76
2022/12/13 01:02:45;;;;;;;35.57;17.47;;;-4.80;99.90;;;;;;5038955;28;38005;-76
2022/12/13 01:05:12;;;;;;;33.27;17.17;;;-4.80;99.90;;;;;;5043139;28;38303;-76
2022/12/13 01:07:39;;;;;;;34.40;17.13;;;-4.80;99.90;;;;;;5037288;28;37059;-76
2022/12/13 01:10:06;;;;;;;32.53;18.67;;;-4.80;99.90;;;;;;5040866;28;39455;-76
2022/12/13 01:12:33;;;;;;;36.97;19.10;;;-4.90;99.90;;;;;;5035398;28;38464;-76
2022/12/13 01:14:59;;;;;;;38.53;18.83;;;-4.90;99.90;;;;;;5039718;28;38411;-76
2022/12/13 01:17:26;;;;;;;37.63;19.43;;;-4.80;99.90;;;;;;5049173;28;36190;-76
2022/12/13 01:19:52;;;;;;;40.30;18.43;;;-4.80;99.90;;;;;;5034300;28;36627;-77
2022/12/13 01:22:18;;;;;;;34.10;17.87;;;-4.80;99.90;;;;;;5031242;28;38167;-76
2022/12/13 01:24:44;;;;;;;31.07;16.60;;;-4.80;99.90;;;;;;5032113;28;37932;-76
2022/12/13 01:27:10;;;;;;;32.57;17.57;;;-4.80;99.90;;;;;;5033852;28;37536;-76
2022/12/13 01:29:36;;;;;;;29.97;16.23;;;-4.80;99.90;;;;;;5040313;28;39142;-76
2022/12/13 01:32:03;;;;;;;29.67;16.30;;;-4.80;99.90;;;;;;5038159;28;37999;-76
2022/12/13 01:34:29;;;;;;;35.40;16.90;;;-4.80;99.90;;;;;;5039664;28;37816;-76
2022/12/13 01:36:56;;;;;;;34.70;18.00;;;-4.90;99.90;;;;;;5042539;28;39626;-76
2022/12/13 01:39:22;;;;;;;38.97;16.60;;;-4.90;99.90;;;;;;5046347;28;38771;-76
2022/12/13 01:41:51;;;;;;;29.60;16.37;;;-4.90;99.90;;;;;;5037275;28;37696;-75
2022/12/13 01:44:54;;;;;;;39.43;18.70;;;-4.80;99.90;;;;;;5035237;28;38709;-76
2022/12/13 01:47:26;;;;;;;;;;;-4.90;99.90;;;;;;5033306;28;38090;-76
2022/12/13 01:49:56;;;;;;;36.43;15.87;;;-4.90;99.90;;;;;;5042139;28;37773;-76
2022/12/13 01:52:22;;;;;;;34.57;16.17;;;-4.90;99.90;;;;;;5040471;28;38112;-76
2022/12/13 01:54:52;;;;;;;36.47;16.77;;;-4.90;99.90;;;;;;5048051;28;38687;-76
2022/12/13 01:57:21;;;;;;;32.47;16.57;;;-4.90;99.90;;;;;;5035227;28;38017;-75
2022/12/13 01:59:49;;;;;;;30.13;15.73;;;-4.90;99.90;;;;;;5036373;28;37322;-76
2022/12/13 02:02:15;;;;;;;31.47;16.07;;;-5.00;99.90;;;;;;5376880;22;38763;-76
2022/12/13 02:04:41;;;;;;;35.27;18.07;;;-5.00;99.90;;;;;;5027073;28;35056;-77
2022/12/13 02:07:08;;;;;;;33.23;16.47;;;-5.00;99.90;;;;;;5037887;28;37826;-76
2022/12/13 02:09:36;;;;;;;31.20;14.93;;;-4.90;99.90;;;;;;5040555;28;39009;-76
2022/12/13 02:12:03;;;;;;;30.93;16.33;;;-4.90;99.90;;;;;;5034574;28;37251;-77
2022/12/13 02:14:29;;;;;;;27.33;15.03;;;-4.90;99.90;;;;;;5034367;28;38020;-77
2022/12/13 02:17:04;;;;;;;36.07;17.60;;;-4.90;99.90;;;;;;5027988;28;37218;-77
2022/12/13 02:20:12;;;;;;;31.60;15.90;;;-5.00;99.90;;;;;;5038428;28;46866;-75
2022/12/13 02:23:06;;;;;;;32.77;17.10;;;-4.90;99.90;;;;;;4982298;28;47111;-77
2022/12/13 02:25:36;;;;;;;37.83;18.53;;;-4.90;99.90;;;;;;4995021;28;47856;-77
2022/12/13 02:28:11;;;;;;;35.77;16.63;;;-5.00;99.90;;;;;;5022395;28;36269;-76
2022/12/13 02:30:51;;;;;;;35.23;15.87;;;-5.00;99.90;;;;;;5042181;28;48693;-76
2022/12/13 02:33:50;;;;;;;28.73;14.27;;;-5.00;99.90;;;;;;5040938;28;37276;-77
2022/12/13 02:36:34;;;;;;;32.40;15.70;;;-5.00;99.90;;;;;;5033082;28;38679;-77
2022/12/13 02:39:19;;;;;;;33.43;15.87;;;-5.00;99.90;;;;;;5039913;28;36827;-76
2022/12/13 02:41:49;;;;;;;31.43;16.77;;;-5.00;99.90;;;;;;5035827;28;48291;-76
2022/12/13 02:44:50;;;;;;;34.17;16.43;;;-4.90;99.90;;;;;;5037384;28;38576;-76
2022/12/13 02:47:21;;;;;;;30.00;15.97;;;-4.90;99.90;;;;;;5040218;28;39956;-76
2022/12/13 02:49:53;;;;;;;34.42;16.35;;;-4.90;99.90;;;;;;5042730;28;36604;-77
2022/12/13 02:52:24;;;;;;;29.47;16.20;;;-4.90;99.90;;;;;;5039622;28;37554;-76
2022/12/13 02:54:52;;;;;;;31.07;16.37;;;-5.00;99.90;;;;;;5039179;28;38082;-76
2022/12/13 02:57:36;;;;;;;32.30;15.43;;;-5.00;99.90;;;;;;5039902;28;39086;-76
2022/12/13 03:00:11;;;;;;;37.73;17.10;;;-5.00;99.90;;;;;;5038864;28;37185;-76
2022/12/13 03:02:59;;;;;;;39.70;17.70;;;-5.10;99.90;;;;;;5033420;28;37960;-76
2022/12/13 03:09:25;;;;;;;30.70;17.00;;;-5.10;99.90;;;;;;5034992;28;49306;-76
2022/12/13 03:14:55;;;;;;;34.83;16.87;;;-5.10;99.90;;;;;;5034649;28;49037;-77
2022/12/13 03:17:24;;;;;;;29.67;15.60;;;-5.10;99.90;;;;;;5037769;28;38459;-77
2022/12/13 03:19:52;;;;;;;30.07;14.87;;;-5.10;99.90;;;;;;5044261;28;36889;-77
2022/12/13 03:22:18;;;;;;;36.67;17.53;;;-5.20;99.90;;;;;;5039209;28;37949;-76
2022/12/13 03:24:45;;;;;;;32.50;16.70;;;-5.10;99.90;;;;;;5042619;28;39795;-76
2022/12/13 03:27:12;;;;;;;30.60;15.47;;;-5.20;99.90;;;;;;5044193;28;37494;-77
2022/12/13 03:29:39;;;;;;;31.03;16.63;;;-5.20;99.90;;;;;;5043310;28;37201;-76
2022/12/13 03:32:05;;;;;;;30.67;16.77;;;-5.20;99.90;;;;;;5045848;28;37036;-76
2022/12/13 03:34:32;;;;;;;32.20;16.23;;;-5.20;99.90;;;;;;5049849;28;38509;-76
2022/12/13 03:36:59;;;;;;;34.53;17.23;;;-5.30;99.90;;;;;;5043837;28;41476;-76
2022/12/13 03:39:25;;;;;;;37.83;15.90;;;-5.30;99.90;;;;;;5041348;28;37922;-76
2022/12/13 03:41:51;;;;;;;32.33;17.53;;;-5.30;99.90;;;;;;5039823;28;37578;-77
2022/12/13 03:44:17;;;;;;;33.67;16.30;;;-5.30;99.90;;;;;;5042061;28;38771;-76
2022/12/13 03:46:43;;;;;;;33.97;16.87;;;-5.30;99.90;;;;;;5035903;28;38807;-76
2022/12/13 03:49:09;;;;;;;32.73;17.73;;;-5.30;99.90;;;;;;5037022;28;36442;-76
2022/12/13 03:51:36;;;;;;;31.03;15.73;;;-5.30;99.90;;;;;;5040066;28;37588;-77
2022/12/13 03:54:02;;;;;;;32.40;16.50;;;-5.30;99.90;;;;;;5054117;28;39798;-76
2022/12/13 03:56:28;;;;;;;31.40;16.50;;;-5.30;99.90;;;;;;5048933;28;46865;-76
2022/12/13 03:58:54;;;;;;;30.73;16.13;;;-5.30;99.90;;;;;;5054820;28;38076;-77
2022/12/13 04:01:21;;;;;;;32.17;16.57;;;-5.30;99.90;;;;;;5044506;28;36144;-76
2022/12/13 04:03:48;;;;;;;34.70;18.37;;;-5.40;99.90;;;;;;5041305;28;39464;-76
2022/12/13 04:06:14;;;;;;;34.10;17.87;;;-5.30;99.90;;;;;;5037428;28;38367;-76
2022/12/13 04:08:41;;;;;;;34.03;17.37;;;-5.40;99.90;;;;;;5033911;28;37102;-77
2022/12/13 04:13:53;;;;;;;31.63;16.73;;;-5.30;99.90;;;;;;5034954;28;39369;-76
2022/12/13 04:16:20;;;;;;;36.27;17.37;;;-5.30;99.90;;;;;;5033948;28;37984;-76
2022/12/13 04:18:46;;;;;;;38.23;19.27;;;-5.30;99.90;;;;;;5032532;28;36462;-76
2022/12/13 04:21:12;;;;;;;32.03;17.00;;;-5.30;99.90;;;;;;5036133;28;37197;-76
2022/12/13 04:23:38;;;;;;;40.03;19.40;;;-5.30;99.90;;;;;;5039300;28;39034;-76
2022/12/13 04:26:05;;;;;;;31.83;17.27;;;-5.30;99.90;;;;;;5039453;28;38058;-76
2022/12/13 04:28:31;;;;;;;37.30;18.03;;;-5.30;99.90;;;;;;5038616;28;39996;-76
2022/12/13 04:30:57;;;;;;;38.33;18.67;;;-5.30;99.90;;;;;;5039543;28;37900;-76
2022/12/13 04:33:23;;;;;;;32.63;17.63;;;-5.30;99.90;;;;;;5037475;28;39256;-76
2022/12/13 04:35:50;;;;;;;33.17;17.67;;;-5.40;99.90;;;;;;5038437;28;38398;-76
2022/12/13 04:38:17;;;;;;;38.63;17.57;;;-5.40;99.90;;;;;;5041497;28;36551;-77
2022/12/13 04:40:43;;;;;;;38.73;18.30;;;-5.40;99.90;;;;;;5038366;28;36176;-76
2022/12/13 04:43:09;;;;;;;34.30;17.70;;;-5.40;99.90;;;;;;5039555;28;37556;-77
2022/12/13 04:45:35;;;;;;;34.07;17.07;;;-5.40;99.90;;;;;;5037252;28;38345;-76
2022/12/13 04:48:02;;;;;;;37.50;17.97;;;-5.40;99.90;;;;;;5036141;28;37441;-75
2022/12/13 04:50:28;;;;;;;39.17;18.50;;;-5.40;99.90;;;;;;5041666;28;37196;-76
2022/12/13 04:52:54;;;;;;;36.10;18.33;;;-5.40;99.90;;;;;;5034843;28;38889;-76
2022/12/13 04:55:20;;;;;;;44.70;20.60;;;-5.30;99.90;;;;;;5034664;28;38522;-75
2022/12/13 04:57:46;;;;;;;38.37;18.93;;;-5.30;99.90;;;;;;5034723;28;37141;-77
2022/12/13 05:00:13;;;;;;;38.00;18.03;;;-5.40;99.90;;;;;;5038875;28;36990;-77
2022/12/13 05:02:40;;;;;;;37.53;19.30;;;-5.40;99.90;;;;;;5040082;28;37292;-77
2022/12/13 05:05:10;;;;;;;39.00;18.73;;;-5.40;99.90;;;;;;5040216;28;36935;-77
2022/12/13 05:07:37;;;;;;;33.20;17.90;;;-5.30;99.90;;;;;;5031045;28;37514;-77
2022/12/13 05:10:03;;;;;;;34.93;17.40;;;-5.30;99.90;;;;;;5030625;28;37470;-78
2022/12/13 05:12:29;;;;;;;41.67;19.13;;;-5.30;99.90;;;;;;5031218;28;39478;-77
2022/12/13 05:14:56;;;;;;;39.37;18.97;;;-5.30;99.90;;;;;;5029759;28;38459;-77
2022/12/13 05:17:22;;;;;;;42.80;19.67;;;-5.40;99.90;;;;;;5030829;28;40078;-77
2022/12/13 05:19:50;;;;;;;36.43;18.20;;;-5.40;99.90;;;;;;5031345;28;37096;-78
2022/12/13 05:22:16;;;;;;;33.97;17.13;;;-5.40;99.90;;;;;;5029469;28;39187;-77
2022/12/13 05:24:43;;;;;;;35.47;17.43;;;-5.40;99.90;;;;;;5032562;28;37789;-77
2022/12/13 05:27:10;;;;;;;38.93;19.10;;;-5.40;99.90;;;;;;5034098;28;37854;-77
2022/12/13 05:29:37;;;;;;;38.50;18.93;;;-5.30;99.90;;;;;;5040004;28;37617;-75
2022/12/13 05:32:03;;;;;;;32.90;17.10;;;-5.30;99.90;;;;;;5036002;28;40048;-76
2022/12/13 05:34:30;;;;;;;35.57;18.57;;;-5.40;99.90;;;;;;5043589;28;38088;-75
2022/12/13 05:36:56;;;;;;;36.73;18.90;;;-5.40;99.90;;;;;;5042001;28;36758;-76
2022/12/13 05:39:22;;;;;;;37.10;18.40;;;-5.40;99.90;;;;;;5049141;28;37970;-76
2022/12/13 05:41:48;;;;;;;35.77;18.80;;;-5.50;99.90;;;;;;5040318;28;40576;-75
2022/12/13 05:44:15;;;;;;;43.00;19.17;;;-5.50;99.90;;;;;;5036654;28;38102;-76
2022/12/13 05:46:41;;;;;;;37.17;18.97;;;-5.40;99.90;;;;;;5041412;28;38564;-78
2022/12/13 05:49:07;;;;;;;41.47;19.67;;;-5.40;99.90;;;;;;5040804;28;35728;-77
2022/12/13 05:51:33;;;;;;;41.70;19.20;;;-5.40;99.90;;;;;;5044819;28;39037;-77
2022/12/13 05:54:04;;;;;;;36.57;18.20;;;-5.50;99.90;;;;;;5041041;28;39541;-77
2022/12/13 05:56:30;;;;;;;39.03;19.17;;;-5.50;99.90;;;;;;5015852;28;49404;-78
2022/12/13 05:58:56;;;;;;;37.47;19.97;;;-5.50;99.90;;;;;;5045683;28;36955;-76
2022/12/13 06:01:23;;;;;;;36.80;18.53;;;-5.50;99.90;;;;;;5039027;28;38706;-77
2022/12/13 06:03:49;;;;;;;39.80;18.63;;;-5.50;99.90;;;;;;5041342;28;38683;-77
2022/12/13 06:06:17;;;;;;;38.43;19.13;;;-5.60;99.90;;;;;;5041468;28;38831;-76
2022/12/13 06:08:43;;;;;;;40.23;19.27;;;-5.60;99.90;;;;;;5044033;28;37515;-76
2022/12/13 06:11:09;;;;;;;39.73;18.47;;;-5.60;99.90;;;;;;5046484;28;37778;-77
2022/12/13 06:13:35;;;;;;;37.47;18.20;;;-5.50;99.90;;;;;;5042283;28;38129;-77
2022/12/13 06:16:05;;;;;;;40.27;19.07;;;-5.50;99.90;;;;;;5035216;28;36820;-76
2022/12/13 06:18:33;;;;;;;46.13;20.30;;;-5.50;99.90;;;;;;5031005;28;46099;-76
2022/12/13 06:21:02;;;;;;;43.00;18.83;;;-5.50;99.90;;;;;;5037454;28;38977;-78
2022/12/13 06:23:30;;;;;;;39.73;20.50;;;-5.40;99.90;;;;;;5043401;28;40058;-78
2022/12/13 06:25:56;;;;;;;40.53;20.17;;;-5.40;99.90;;;;;;5058208;28;37092;-79
2022/12/13 06:28:23;;;;;;;38.67;18.03;;;-5.50;99.90;;;;;;5040740;28;36096;-79
2022/12/13 06:30:52;;;;;;;39.23;19.57;;;-5.50;99.90;;;;;;5035240;28;37710;-78
2022/12/13 06:33:19;;;;;;;41.90;20.43;;;-5.50;99.90;;;;;;5035683;28;37841;-77
2022/12/13 06:35:45;;;;;;;45.70;19.37;;;-5.50;99.90;;;;;;5039102;28;39945;-79
2022/12/13 06:38:12;;;;;;;38.97;19.20;;;-5.50;99.90;;;;;;5043357;28;36781;-76
2022/12/13 06:40:39;;;;;;;45.37;21.83;;;-5.50;99.90;;;;;;5042033;28;37948;-77
2022/12/13 06:43:05;;;;;;;41.83;20.47;;;-5.60;99.90;;;;;;5044641;28;39353;-78
2022/12/13 06:45:31;;;;;;;39.33;20.43;;;-5.50;99.90;;;;;;5044419;28;37597;-77
2022/12/13 06:47:57;;;;;;;39.90;19.27;;;-5.50;99.90;;;;;;5049349;28;37503;-77
2022/12/13 06:50:24;;;;;;;35.10;18.20;;;-5.50;99.90;;;;;;5042461;28;37511;-77
2022/12/13 06:52:50;;;;;;;42.03;20.23;;;-5.50;99.90;;;;;;5043503;28;38770;-76
2022/12/13 06:55:16;;;;;;;37.97;18.73;;;-5.40;99.90;;;;;;5052077;28;36733;-77
2022/12/13 06:57:42;;;;;;;44.03;19.63;;;-5.40;99.90;;;;;;5048381;28;36482;-78
2022/12/13 07:00:09;;;;;;;37.87;20.00;;;-5.40;99.90;;;;;;5056776;28;38260;-79
2022/12/13 07:02:36;;;;;;;37.60;19.20;;;-5.40;99.90;;;;;;5053493;28;37447;-78
2022/12/13 07:05:03;;;;;;;35.30;18.43;;;-5.40;99.90;;;;;;5049241;28;38041;-77
2022/12/13 07:07:29;;;;;;;41.20;21.40;;;-5.50;99.90;;;;;;5048504;28;36666;-77
2022/12/13 07:09:55;;;;;;;42.77;19.57;;;-5.50;99.90;;;;;;5055658;28;37671;-76
2022/12/13 07:12:22;;;;;;;35.53;17.93;;;-5.30;99.90;;;;;;5052787;28;38369;-75
2022/12/13 07:14:48;;;;;;;41.70;20.07;;;-5.30;99.90;;;;;;5063215;28;37603;-77
2022/12/13 07:17:14;;;;;;;41.33;19.67;;;-5.30;99.90;;;;;;5068775;28;35096;-78
2022/12/13 07:19:40;;;;;;;37.87;19.53;;;-5.40;99.90;;;;;;5054254;28;38814;-76
2022/12/13 07:22:07;;;;;;;36.50;18.77;;;-5.50;99.90;;;;;;5054244;28;38834;-76
2022/12/13 07:24:35;;;;;;;39.03;21.73;;;-5.50;99.90;;;;;;5059789;28;38480;-76
2022/12/13 07:27:02;;;;;;;39.23;19.33;;;-5.60;99.90;;;;;;5046227;28;36419;-77
2022/12/13 07:29:28;;;;;;;40.37;19.13;;;-5.60;99.90;;;;;;5047084;28;45798;-77
2022/12/13 07:31:54;;;;;;;35.27;18.77;;;-5.70;99.90;;;;;;5042077;28;38422;-77
2022/12/13 07:34:21;;;;;;;40.87;19.60;;;-5.70;99.90;;;;;;5036642;28;38486;-76
2022/12/13 07:36:49;;;;;;;42.73;20.93;;;-5.70;99.90;;;;;;5052892;28;37565;-76
2022/12/13 07:39:15;;;;;;;45.27;21.93;;;-5.70;99.90;;;;;;5051965;28;37669;-76
2022/12/13 07:41:41;;;;;;;47.33;21.20;;;-5.70;99.90;;;;;;5056907;28;39008;-76
2022/12/13 07:44:07;;;;;;;38.97;19.80;;;-5.60;99.90;;;;;;5051890;28;36598;-78
2022/12/13 07:46:33;;;;;;;42.30;19.67;;;-5.50;99.90;;;;;;5043449;28;37266;-76
2022/12/13 07:49:04;;;;;;;42.43;18.77;;;-5.60;99.90;;;;;;5047647;28;38602;-77
2022/12/13 07:51:33;;;;;;;41.80;20.83;;;-5.60;99.90;;;;;;5054047;28;47316;-77
2022/12/13 07:53:59;;;;;;;38.93;20.43;;;-5.60;99.90;;;;;;5052779;28;36996;-77
2022/12/13 07:56:25;;;;;;;42.33;20.07;;;-5.50;99.90;;;;;;5041034;28;36405;-77
2022/12/13 07:58:51;;;;;;;46.60;21.33;;;-5.50;99.90;;;;;;5046948;28;40478;-77
2022/12/13 08:01:17;;;;;;;40.53;20.50;;;-5.50;99.90;;;;;;5039541;28;38463;-77
2022/12/13 08:03:46;;;;;;;44.73;21.00;;;-5.50;99.90;;;;;;5041292;28;38021;-77
2022/12/13 08:06:12;;;;;;;43.37;21.23;;;-5.40;99.90;;;;;;5042483;28;35544;-77
2022/12/13 08:08:39;;;;;;;40.73;20.67;;;-5.40;99.90;;;;;;5046834;28;38051;-77
2022/12/13 08:11:10;;;;;;;47.70;23.50;;;-5.30;99.90;;;;;;5046471;28;37342;-78
2022/12/13 08:13:37;;;;;;;45.73;21.33;;;-5.30;99.90;;;;;;5041879;28;48765;-77
2022/12/13 08:16:07;;;;;;;41.93;21.30;;;-5.20;99.90;;;;;;5043522;28;37471;-77
2022/12/13 08:18:33;;;;;;;47.60;21.20;;;-5.10;99.90;;;;;;5051814;28;48854;-77
2022/12/13 08:21:01;;;;;;;41.00;21.10;;;-5.00;99.90;;;;;;5049391;28;38449;-77
2022/12/13 08:23:30;;;;;;;44.10;20.33;;;-5.00;99.90;;;;;;5047951;28;36728;-77
2022/12/13 08:25:56;;;;;;;42.87;21.33;;;-5.00;99.90;;;;;;5045405;28;36705;-77
2022/12/13 08:28:23;;;;;;;39.97;21.27;;;-5.00;99.90;;;;;;5045092;28;38708;-77
2022/12/13 08:30:50;;;;;;;41.83;21.40;;;-4.90;99.90;;;;;;5039127;28;37822;-77
2022/12/13 08:33:17;;;;;;;45.60;21.40;;;-4.90;99.90;;;;;;5041955;28;36003;-77
2022/12/13 08:35:43;;;;;;;42.73;22.03;;;-4.80;99.90;;;;;;5048155;28;36237;-77
2022/12/13 08:38:10;;;;;;;46.90;23.27;;;-4.70;99.90;;;;;;5049284;28;38419;-77
2022/12/13 08:40:36;;;;;;;42.50;22.00;;;-4.60;99.90;;;;;;5052171;28;38546;-77
2022/12/13 08:43:03;;;;;;;44.07;22.33;;;-4.60;99.90;;;;;;5046275;28;36878;-77
2022/12/13 08:45:31;;;;;;;59.70;24.93;;;-4.50;99.90;;;;;;5044559;28;47104;-76
2022/12/13 08:48:00;;;;;;;44.27;22.87;;;-4.40;99.90;;;;;;5041991;28;38615;-77
2022/12/13 08:50:28;;;;;;;54.83;25.33;;;-4.20;99.90;;;;;;5040329;28;38546;-77
2022/12/13 08:52:54;;;;;;;52.20;24.37;;;-4.10;99.90;;;;;;5045483;28;38086;-77
2022/12/13 08:55:20;;;;;;;47.30;23.37;;;-3.90;99.90;;;;;;5038629;28;36213;-77
2022/12/13 08:57:46;;;;;;;48.53;24.20;;;-3.70;99.90;;;;;;5040174;28;38338;-77
2022/12/13 09:00:15;;;;;;;49.07;26.40;;;-3.60;99.90;;;;;;5035067;28;37952;-77
2022/12/13 09:02:42;;;;;;;52.70;25.47;;;-3.50;99.90;;;;;;5047582;28;49315;-77
2022/12/13 09:05:09;;;;;;;45.57;23.13;;;-3.40;99.90;;;;;;5053050;28;37683;-77
2022/12/13 09:07:36;;;;;;;51.43;26.03;;;-3.40;99.90;;;;;;5044374;28;40365;-77
2022/12/13 09:10:03;;;;;;;50.77;26.47;;;-3.30;99.90;;;;;;5044852;28;38525;-78
2022/12/13 09:12:29;;;;;;;49.17;26.37;;;-3.20;99.90;;;;;;5045394;28;47928;-78
2022/12/13 09:14:55;;;;;;;45.70;24.30;;;-3.10;99.90;;;;;;5049473;28;37167;-76
2022/12/13 09:17:21;;;;;;;51.60;26.93;;;-3.10;99.90;;;;;;5052979;28;38914;-77
2022/12/13 09:19:47;;;;;;;60.57;29.60;;;-3.00;99.90;;;;;;5047113;28;36545;-77
2022/12/13 09:22:13;;;;;;;46.97;27.07;;;-2.90;99.90;;;;;;5042621;28;36431;-76
2022/12/13 09:24:39;;;;;;;45.67;27.20;;;-2.80;99.90;;;;;;5047795;28;38349;-77
2022/12/13 09:27:06;;;;;;;55.20;28.03;;;-2.70;99.90;;;;;;5050577;28;38554;-76
2022/12/13 09:29:33;;;;;;;49.87;27.67;;;-2.60;99.90;;;;;;5044143;28;37502;-77
2022/12/13 09:32:00;;;;;;;42.40;24.67;;;-2.50;99.90;;;;;;5036821;28;36098;-77
2022/12/13 09:34:26;;;;;;;58.33;30.47;;;-2.40;99.90;;;;;;5051042;28;37020;-76
2022/12/13 09:36:52;;;;;;;63.27;30.73;;;-2.30;99.90;;;;;;5034607;28;37950;-77
2022/12/13 09:39:18;;;;;;;51.53;27.80;;;-2.20;99.90;;;;;;5042746;28;37951;-77
2022/12/13 09:41:51;;;;;;;62.73;30.00;;;-2.20;99.90;;;;;;5038980;28;38822;-76
2022/12/13 09:44:26;;;;;;;54.33;29.27;;;-2.10;99.90;;;;;;5037973;28;36749;-76
2022/12/13 09:46:55;;;;;;;55.53;28.67;;;-2.00;99.90;;;;;;5040841;28;40780;-77
2022/12/13 09:49:40;;;;;;;61.30;32.57;;;-1.90;99.90;;;;;;5046600;28;37435;-76
2022/12/13 09:52:13;;;;;;;50.87;27.87;;;-1.80;99.90;;;;;;5049069;28;37644;-76
2022/12/13 09:54:40;;;;;;;57.50;33.10;;;-1.80;99.90;;;;;;5052756;28;36444;-75
2022/12/13 09:57:24;;;;;;;54.37;30.27;;;-1.80;99.90;;;;;;5033084;28;39134;-76
2022/12/13 09:59:51;;;;;;;57.87;31.20;;;-1.70;99.90;;;;;;5044738;28;38888;-74
2022/12/13 10:02:27;;;;;;;53.30;31.70;;;-1.70;99.90;;;;;;5031992;28;36641;-77
2022/12/13 10:05:26;;;;;;;64.53;33.20;;;-1.60;99.90;;;;;;5046564;28;35101;-76
2022/12/13 10:07:55;;;;;;;54.97;29.93;;;-1.60;99.90;;;;;;5036802;28;47326;-76
2022/12/13 10:10:22;;;;;;;54.77;29.73;;;-1.50;99.90;;;;;;5037040;28;37940;-77
2022/12/13 10:12:58;;;;;;;55.27;29.30;;;-1.50;99.90;;;;;;5043397;28;36958;-77
2022/12/13 10:15:26;;;;;;;52.57;29.93;;;-1.50;99.90;;;;;;5040572;28;37808;-76
2022/12/13 10:17:53;;;;;;;54.90;31.43;;;-1.50;99.90;;;;;;5041203;28;37848;-76
2022/12/13 10:20:21;;;;;;;53.93;29.57;;;-1.50;99.90;;;;;;5042919;28;37304;-76
2022/12/13 10:22:47;;;;;;;61.23;32.73;;;-1.40;99.90;;;;;;5043315;28;37430;-77
2022/12/13 10:25:13;;;;;;;62.53;35.13;;;-1.40;99.90;;;;;;5048428;28;36874;-76
2022/12/13 10:27:43;;;;;;;55.97;32.53;;;-1.40;99.90;;;;;;5055133;28;38897;-76
2022/12/13 10:30:20;;;;;;;59.60;31.87;;;-1.30;99.90;;;;;;5052483;28;39170;-76
2022/12/13 10:33:02;;;;;;;53.47;30.80;;;-1.30;99.90;;;;;;5050473;28;37134;-76
2022/12/13 10:35:35;;;;;;;55.20;31.40;;;-1.20;99.90;;;;;;5039570;28;47766;-77
2022/12/13 10:38:19;;;;;;;;;;;-1.20;99.90;;;;;;5049453;28;38491;-77
2022/12/13 10:40:47;;;;;;;49.00;28.00;;;-1.10;99.90;;;;;;5051638;28;48878;-76
2022/12/13 10:43:29;;;;;;;55.20;31.60;;;-1.00;99.90;;;;;;5043595;28;38247;-76
2022/12/13 10:45:58;;;;;;;55.10;29.50;;;-0.90;99.90;;;;;;5046827;28;37847;-77
2022/12/13 10:48:45;;;;;;;53.27;30.23;;;-0.90;99.90;;;;;;5053165;28;41602;-78
2022/12/13 10:51:18;;;;;;;53.23;28.33;;;-0.90;99.90;;;;;;5028284;28;37266;-77
2022/12/13 10:53:52;;;;;;;55.80;31.43;;;-0.80;99.90;;;;;;5040166;28;38819;-77
2022/12/13 10:56:20;;;;;;;49.47;29.43;;;-0.80;99.90;;;;;;5046837;28;36419;-77
2022/12/13 10:58:48;;;;;;;60.70;32.63;;;-0.70;99.90;;;;;;5037283;28;38784;-77
2022/12/13 11:01:17;;;;;;;50.87;28.43;;;-0.60;99.90;;;;;;5037118;28;38270;-77
2022/12/13 11:04:05;;;;;;;53.17;29.63;;;-0.60;99.90;;;;;;5030206;28;37794;-74
2022/12/13 11:06:44;;;;;;;50.53;30.67;;;-0.50;99.90;;;;;;5041787;28;47225;-75
2022/12/13 11:09:30;;;;;;;53.17;30.20;;;-0.40;99.90;;;;;;5042781;28;40282;-74
2022/12/13 11:12:12;;;;;;;48.47;28.90;;;-0.30;99.90;;;;;;5035740;28;39150;-74
2022/12/13 11:14:51;;;;;;;62.43;34.83;;;-0.30;99.90;;;;;;5031525;28;47222;-74
2022/12/13 11:17:21;;;;;;;49.90;30.03;;;-0.20;99.90;;;;;;5033516;28;38486;-78
2022/12/13 11:19:53;;;;;;;52.80;30.63;;;-0.10;99.90;;;;;;5045887;28;39494;-77
2022/12/13 11:22:27;;;;;;;52.38;30.20;;;-0.10;99.90;;;;;;5030209;28;38980;-76
2022/12/13 11:25:07;;;;;;;52.80;29.10;;;0.00;99.90;;;;;;5031850;28;37267;-76
2022/12/13 11:28:14;;;;;;;53.30;30.10;;;0.10;99.90;;;;;;5032814;28;48325;-77
2022/12/13 11:30:47;;;;;;;50.03;30.13;;;0.10;99.90;;;;;;5019230;28;47218;-75
2022/12/13 11:33:31;;;;;;;53.20;29.83;;;0.00;99.90;;;;;;5043202;28;37169;-76
2022/12/13 11:36:17;;;;;;;49.93;28.40;;;0.20;99.90;;;;;;5048580;28;37759;-77
2022/12/13 11:39:07;;;;;;;53.87;29.07;;;0.10;99.90;;;;;;5044391;28;49199;-77
2022/12/13 11:41:41;;;;;;;50.20;28.70;;;0.20;99.90;;;;;;5045638;28;49023;-78
2022/12/13 11:44:22;;;;;;;53.13;30.17;;;0.20;99.90;;;;;;5048642;28;37436;-77
2022/12/13 11:46:54;;;;;;;50.77;28.77;;;0.40;99.90;;;;;;5050911;28;37002;-77
2022/12/13 11:49:40;;;;;;;47.25;28.38;;;0.30;99.90;;;;;;5042578;28;37651;-77
2022/12/13 11:52:16;;;;;;;47.00;27.77;;;0.20;99.90;;;;;;5046393;28;37559;-76
2022/12/13 11:54:48;;;;;;;46.03;27.13;;;0.30;99.90;;;;;;5045633;28;37247;-78
2022/12/13 11:57:29;;;;;;;44.65;27.52;;;0.30;99.90;;;;;;5046655;28;37392;-77
2022/12/13 12:00:04;;;;;;;47.47;28.00;;;0.30;99.90;;;;;;5042682;28;36035;-77
2022/12/13 12:02:38;;;;;;;43.37;25.33;;;0.30;99.90;;;;;;5042987;28;48932;-77
2022/12/13 12:05:18;;;;;;;40.40;23.00;;;0.30;99.90;;;;;;5042805;28;37563;-76
2022/12/13 12:07:49;;;;;;;41.07;22.33;;;0.20;99.90;;;;;;5042302;28;39207;-77
2022/12/13 12:10:40;;;;;;;42.03;24.03;;;0.00;99.90;;;;;;5038567;28;36275;-78
2022/12/13 12:13:19;;;;;;;40.07;23.33;;;0.00;99.90;;;;;;5042694;28;37752;-78
2022/12/13 12:16:03;;;;;;;38.23;22.20;;;0.00;99.90;;;;;;5042640;28;37588;-78
2022/12/13 12:18:29;;;;;;;37.13;21.73;;;0.00;99.90;;;;;;5043930;28;37218;-77
2022/12/13 12:21:14;;;;;;;41.27;22.30;;;-0.10;99.90;;;;;;5044588;28;37678;-77
2022/12/13 12:24:00;;;;;;;38.37;22.10;;;-0.10;99.90;;;;;;5034548;28;48574;-78
2022/12/13 12:26:40;;;;;;;38.47;22.97;;;-0.10;99.90;;;;;;5038564;28;37646;-78
2022/12/13 12:29:25;;;;;;;39.63;23.67;;;-0.10;99.90;;;;;;5042131;28;38595;-78
2022/12/13 12:32:03;;;;;;;47.17;23.57;;;-0.10;99.90;;;;;;5043712;28;38926;-76
2022/12/13 12:35:07;;;;;;;40.67;22.63;;;-0.10;99.90;;;;;;5045092;28;47009;-78
2022/12/13 12:38:04;;;;;;;41.03;24.27;;;-0.20;99.90;;;;;;5040917;28;47064;-78
2022/12/13 12:40:42;;;;;;;40.10;23.37;;;-0.20;99.90;;;;;;5046631;28;46949;-77
2022/12/13 12:43:36;;;;;;;43.77;24.13;;;-0.20;99.90;;;;;;5047116;28;37638;-77
2022/12/13 12:46:15;;;;;;;43.87;24.03;;;-0.20;99.90;;;;;;5052734;28;39875;-77
2022/12/13 12:49:10;;;;;;;41.83;23.73;;;-0.30;99.90;;;;;;5055124;28;48672;-78
2022/12/13 12:51:39;;;;;;;47.60;24.47;;;-0.20;99.90;;;;;;5049675;28;48632;-78
2022/12/13 12:54:26;;;;;;;44.80;25.03;;;-0.20;99.90;;;;;;5048591;28;37186;-77